createdAt,value
2017-05-31T00:00:55.803Z,99.90
2017-05-31T00:03:24.138Z,99.90
2017-05-31T00:05:52.443Z,99.90
2017-05-31T00:08:20.794Z,99.90
2017-05-31T00:10:49.122Z,99.90
2017-05-31T00:13:17.431Z,99.90
2017-05-31T00:15:45.920Z,99.90
2017-05-31T00:18:14.399Z,99.90
2017-05-31T00:20:42.798Z,99.90
2017-05-31T00:23:11.102Z,99.90
2017-05-31T00:25:39.442Z,99.90
2017-05-31T00:28:07.741Z,99.90
2017-05-31T00:30:36.045Z,99.90
2017-05-31T00:33:04.369Z,99.90
2017-05-31T00:35:32.847Z,99.90
2017-05-31T00:38:01.327Z,99.90
2017-05-31T00:40:29.809Z,99.90
2017-05-31T00:42:58.109Z,99.90
2017-05-31T00:45:26.434Z,99.90
2017-05-31T00:47:54.945Z,99.90
2017-05-31T00:50:23.342Z,99.90
2017-05-31T00:52:51.669Z,99.90
2017-05-31T00:55:19.974Z,99.90
2017-05-31T00:57:48.283Z,99.90
2017-05-31T01:00:16.650Z,99.90
2017-05-31T01:02:44.952Z,99.90
2017-05-31T01:05:13.298Z,99.90
2017-05-31T01:07:41.768Z,99.90
2017-05-31T01:10:10.172Z,99.90
2017-05-31T01:12:38.538Z,99.90
2017-05-31T01:15:06.914Z,99.90
2017-05-31T01:17:35.270Z,99.90
2017-05-31T01:20:03.683Z,99.90
2017-05-31T01:22:32.056Z,99.90
2017-05-31T01:25:00.430Z,99.90
2017-05-31T01:27:28.818Z,99.90
2017-05-31T01:29:57.186Z,99.90
2017-05-31T01:32:25.491Z,99.90
2017-05-31T01:34:53.843Z,99.90
2017-05-31T01:37:22.228Z,99.90
2017-05-31T01:39:50.545Z,99.90
2017-05-31T01:42:18.977Z,99.90
2017-05-31T01:44:47.281Z,99.90
2017-05-31T01:47:15.629Z,99.90
2017-05-31T01:49:44.012Z,99.90
2017-05-31T01:52:12.309Z,99.90
2017-05-31T01:54:40.677Z,99.90
2017-05-31T01:57:09.046Z,99.90
2017-05-31T01:59:37.422Z,99.90
2017-05-31T02:02:05.895Z,99.90
2017-05-31T02:04:34.194Z,99.90
2017-05-31T02:07:02.562Z,99.90
2017-05-31T02:09:31.032Z,99.90
2017-05-31T02:11:59.422Z,99.90
2017-05-31T02:14:27.818Z,99.90
2017-05-31T02:16:56.199Z,99.90
2017-05-31T02:19:24.506Z,99.90
2017-05-31T02:21:52.926Z,99.90
2017-05-31T02:24:21.230Z,99.90
2017-05-31T02:26:49.590Z,99.90
2017-05-31T02:29:17.902Z,99.90
2017-05-31T02:31:46.258Z,99.90
2017-05-31T02:34:14.641Z,99.90
2017-05-31T02:36:42.953Z,99.90
2017-05-31T02:39:11.259Z,99.90
2017-05-31T02:41:39.670Z,99.90
2017-05-31T02:44:08.041Z,99.90
2017-05-31T02:46:36.726Z,99.90
2017-05-31T02:49:05.105Z,99.90
2017-05-31T02:51:33.411Z,99.90
2017-05-31T02:54:01.751Z,99.90
2017-05-31T02:56:30.056Z,99.90
2017-05-31T02:58:58.358Z,99.90
2017-05-31T03:01:26.682Z,99.90
2017-05-31T03:03:55.013Z,99.90
2017-05-31T03:06:23.347Z,99.90
2017-05-31T03:08:51.731Z,99.90
2017-05-31T03:11:20.318Z,99.90
2017-05-31T03:13:48.726Z,99.90
2017-05-31T03:16:17.054Z,99.90
2017-05-31T03:18:45.434Z,99.90
2017-05-31T03:21:13.830Z,99.90
2017-05-31T03:23:42.146Z,99.90
2017-05-31T03:26:10.479Z,99.90
2017-05-31T03:28:38.797Z,99.90
2017-05-31T03:31:07.123Z,99.90
2017-05-31T03:33:35.603Z,99.90
2017-05-31T03:36:03.909Z,99.90
2017-05-31T03:38:32.269Z,99.90
2017-05-31T03:41:00.593Z,99.90
2017-05-31T03:43:28.929Z,99.90
2017-05-31T03:45:57.303Z,99.90
2017-05-31T03:48:25.695Z,99.90
2017-05-31T03:50:53.997Z,99.90
2017-05-31T03:53:22.327Z,99.90
2017-05-31T03:55:51.225Z,99.90
2017-05-31T03:58:19.524Z,99.90
2017-05-31T04:00:48.079Z,99.90
2017-05-31T04:03:16.560Z,99.90
2017-05-31T04:05:44.870Z,99.90
2017-05-31T04:08:13.227Z,99.90
2017-05-31T04:10:41.530Z,99.90
2017-05-31T04:13:09.830Z,99.90
2017-05-31T04:15:38.258Z,99.90
2017-05-31T04:18:06.731Z,99.90
2017-05-31T04:20:35.212Z,99.90
2017-05-31T04:23:03.617Z,99.90
2017-05-31T04:25:31.986Z,99.90
2017-05-31T04:28:00.354Z,99.90
2017-05-31T04:30:28.658Z,99.90
2017-05-31T04:32:57.823Z,99.90
2017-05-31T04:35:26.217Z,99.90
2017-05-31T04:37:54.684Z,99.90
2017-05-31T04:40:23.078Z,99.90
2017-05-31T04:42:51.387Z,99.90
2017-05-31T04:45:19.689Z,99.90
2017-05-31T04:47:48.017Z,99.90
2017-05-31T04:50:16.699Z,99.90
2017-05-31T04:52:44.997Z,99.90
2017-05-31T04:55:13.293Z,99.90
2017-05-31T04:57:41.817Z,99.90
2017-05-31T05:00:10.219Z,99.90
2017-05-31T05:02:38.522Z,99.90
2017-05-31T05:05:06.846Z,99.90
2017-05-31T05:07:35.150Z,99.90
2017-05-31T05:10:03.514Z,99.90
2017-05-31T05:12:31.813Z,99.90
2017-05-31T05:15:00.118Z,99.90
2017-05-31T05:17:28.558Z,99.90
2017-05-31T05:19:57.020Z,99.90
2017-05-31T05:22:26.042Z,99.90
2017-05-31T05:24:54.344Z,99.90
2017-05-31T05:27:22.782Z,99.90
2017-05-31T05:29:51.090Z,99.90
2017-05-31T05:32:19.442Z,99.90
2017-05-31T05:34:47.816Z,99.90
2017-05-31T05:37:16.288Z,99.90
2017-05-31T05:39:44.608Z,99.90
2017-05-31T05:42:12.951Z,99.90
2017-05-31T05:44:41.253Z,99.90
2017-05-31T05:47:09.558Z,99.90
2017-05-31T05:49:37.889Z,99.90
2017-05-31T05:52:06.357Z,99.90
2017-05-31T05:54:34.686Z,99.90
2017-05-31T05:57:03.013Z,99.90
2017-05-31T05:59:32.105Z,99.90
2017-05-31T06:02:00.443Z,99.90
2017-05-31T06:04:28.747Z,99.90
2017-05-31T06:06:57.049Z,99.90
2017-05-31T06:09:25.387Z,99.90
2017-05-31T06:11:53.690Z,99.90
2017-05-31T06:14:21.995Z,99.90
2017-05-31T06:16:50.348Z,99.90
2017-05-31T06:19:18.670Z,99.90
2017-05-31T06:21:47.006Z,99.90
2017-05-31T06:24:15.306Z,99.90
2017-05-31T06:26:43.626Z,99.90
2017-05-31T06:29:11.932Z,99.90
2017-05-31T06:31:40.254Z,99.90
2017-05-31T06:34:08.713Z,99.90
2017-05-31T06:36:37.031Z,99.90
2017-05-31T06:39:05.334Z,99.90
2017-05-31T06:41:33.674Z,99.90
2017-05-31T06:44:01.978Z,99.90
2017-05-31T06:46:30.292Z,99.90
2017-05-31T06:48:58.638Z,99.90
2017-05-31T06:51:26.942Z,99.90
2017-05-31T06:53:55.241Z,99.90
2017-05-31T06:56:23.606Z,99.90
2017-05-31T06:58:51.915Z,99.90
2017-05-31T07:01:20.244Z,99.90
2017-05-31T07:03:48.581Z,99.90
2017-05-31T07:06:16.887Z,99.90
2017-05-31T07:08:45.197Z,99.90
2017-05-31T07:11:13.533Z,99.90
2017-05-31T07:13:41.833Z,99.90
2017-05-31T07:16:10.145Z,99.90
2017-05-31T07:18:38.473Z,99.90
2017-05-31T07:21:06.779Z,99.90
2017-05-31T07:23:35.082Z,99.90
2017-05-31T07:26:03.426Z,99.90
2017-05-31T07:28:31.726Z,99.90
2017-05-31T07:31:00.029Z,99.90
2017-05-31T07:33:28.350Z,99.90
2017-05-31T07:35:56.650Z,99.90
2017-05-31T07:38:24.982Z,99.90
2017-05-31T07:40:53.282Z,99.90
2017-05-31T07:43:21.582Z,99.90
2017-05-31T07:45:49.898Z,99.90
2017-05-31T07:48:18.234Z,99.90
2017-05-31T07:50:46.541Z,99.90
2017-05-31T07:53:14.837Z,99.90
2017-05-31T07:55:43.243Z,99.90
2017-05-31T07:58:11.585Z,99.90
2017-05-31T08:00:39.889Z,99.90
2017-05-31T08:03:08.277Z,99.90
2017-05-31T08:05:36.602Z,99.90
2017-05-31T08:08:04.911Z,99.90
2017-05-31T08:10:33.311Z,99.90
2017-05-31T08:13:01.610Z,99.90
2017-05-31T08:15:29.937Z,99.90
2017-05-31T08:17:58.347Z,99.90
2017-05-31T08:20:26.646Z,99.90
2017-05-31T08:22:54.973Z,99.90
2017-05-31T08:25:23.275Z,99.90
2017-05-31T08:27:51.583Z,99.90
2017-05-31T08:30:19.918Z,99.90
2017-05-31T08:32:48.312Z,99.90
2017-05-31T08:35:16.618Z,99.90
2017-05-31T08:37:44.951Z,99.90
2017-05-31T08:40:13.267Z,99.90
2017-05-31T08:42:41.594Z,99.90
2017-05-31T08:45:09.903Z,99.90
2017-05-31T08:47:38.254Z,99.90
2017-05-31T08:50:06.554Z,99.90
2017-05-31T08:52:34.858Z,99.90
2017-05-31T08:55:03.193Z,99.90
2017-05-31T08:57:31.485Z,99.90
2017-05-31T08:59:59.789Z,99.90
2017-05-31T09:02:28.118Z,99.90
2017-05-31T09:04:56.410Z,99.90
2017-05-31T09:07:24.710Z,99.90
2017-05-31T09:09:53.043Z,99.90
2017-05-31T09:12:21.343Z,99.90
2017-05-31T09:14:49.649Z,99.90
2017-05-31T09:17:17.981Z,99.90
2017-05-31T09:19:46.269Z,99.90
2017-05-31T09:22:14.565Z,99.90
2017-05-31T09:24:42.889Z,99.20
2017-05-31T09:27:11.187Z,95.30
2017-05-31T09:29:39.486Z,98.70
2017-05-31T09:32:07.826Z,97.60
2017-05-31T09:34:36.119Z,99.40
2017-05-31T09:37:04.418Z,97.10
2017-05-31T09:39:32.746Z,99.10
2017-05-31T09:42:01.044Z,99.90
2017-05-31T09:44:29.350Z,99.90
2017-05-31T09:46:57.950Z,99.90
2017-05-31T09:49:26.246Z,99.90
2017-05-31T09:51:54.549Z,99.90
2017-05-31T09:54:22.883Z,99.90
2017-05-31T09:56:51.178Z,99.90
2017-05-31T09:59:19.473Z,99.90
2017-05-31T10:01:47.818Z,99.90
2017-05-31T10:04:16.121Z,99.90
2017-05-31T10:06:44.452Z,99.90
2017-05-31T10:09:12.769Z,99.90
2017-05-31T10:11:41.289Z,99.70
2017-05-31T10:14:09.579Z,97.30
2017-05-31T10:16:37.967Z,97.80
2017-05-31T10:19:06.298Z,94.10
2017-05-31T10:21:34.596Z,93.40
2017-05-31T10:24:02.886Z,95.10
2017-05-31T10:26:31.208Z,91.20
2017-05-31T10:28:59.498Z,89.70
2017-05-31T10:31:27.798Z,88.20
2017-05-31T10:33:56.118Z,84.50
2017-05-31T10:36:24.414Z,86.00
2017-05-31T10:38:52.730Z,85.10
2017-05-31T10:41:21.140Z,82.50
2017-05-31T10:43:49.458Z,74.70
2017-05-31T10:46:17.758Z,76.90
2017-05-31T10:48:46.050Z,76.80
2017-05-31T10:51:14.369Z,73.00
2017-05-31T10:53:42.658Z,74.40
2017-05-31T10:56:10.962Z,72.30
2017-05-31T10:58:39.289Z,66.80
2017-05-31T11:01:07.589Z,63.50
2017-05-31T11:03:35.881Z,63.90
2017-05-31T11:06:04.202Z,63.90
2017-05-31T11:08:32.589Z,60.70
2017-05-31T11:11:00.888Z,60.00
2017-05-31T11:13:29.244Z,57.30
2017-05-31T11:15:57.539Z,56.80
2017-05-31T11:18:25.829Z,53.60
2017-05-31T11:20:54.175Z,52.70
2017-05-31T11:23:22.479Z,51.50
2017-05-31T11:25:50.771Z,48.10
2017-05-31T11:28:19.103Z,44.70
2017-05-31T11:30:47.402Z,45.00
2017-05-31T11:33:15.689Z,43.80
2017-05-31T11:35:44.010Z,42.00
2017-05-31T11:38:12.302Z,41.90
2017-05-31T11:40:40.622Z,41.60
2017-05-31T11:43:08.918Z,38.60
2017-05-31T11:45:37.235Z,38.30
2017-05-31T11:48:05.546Z,37.20
2017-05-31T11:50:33.862Z,37.30
2017-05-31T11:53:02.280Z,39.80
2017-05-31T11:55:30.574Z,36.90
2017-05-31T11:57:58.897Z,36.90
2017-05-31T12:00:27.194Z,33.50
2017-05-31T12:02:55.591Z,33.80
2017-05-31T12:05:23.906Z,30.40
2017-05-31T12:07:52.205Z,30.40
2017-05-31T12:10:20.545Z,32.70
2017-05-31T12:12:48.845Z,34.00
2017-05-31T12:15:17.142Z,35.70
2017-05-31T12:17:45.460Z,38.00
2017-05-31T12:20:13.777Z,40.20
2017-05-31T12:22:42.075Z,38.80
2017-05-31T12:25:10.705Z,38.40
2017-05-31T12:27:39.021Z,34.70
2017-05-31T12:30:07.320Z,33.50
2017-05-31T12:32:35.655Z,31.10
2017-05-31T12:35:03.950Z,31.50
2017-05-31T12:37:32.246Z,29.90
2017-05-31T12:40:00.564Z,29.00
2017-05-31T12:42:28.879Z,29.00
2017-05-31T12:44:57.179Z,28.10
2017-05-31T12:47:25.506Z,27.00
2017-05-31T12:49:53.810Z,25.80
2017-05-31T12:52:22.109Z,26.20
2017-05-31T12:54:50.426Z,27.40
2017-05-31T12:57:18.774Z,29.90
2017-05-31T12:59:47.074Z,34.00
2017-05-31T13:02:15.370Z,35.80
2017-05-31T13:04:43.701Z,37.40
2017-05-31T13:07:11.999Z,36.00
2017-05-31T13:09:40.397Z,32.50
2017-05-31T13:12:08.727Z,30.20
2017-05-31T13:14:37.049Z,28.70
2017-05-31T13:17:05.347Z,28.80
2017-05-31T13:19:33.683Z,28.40
2017-05-31T13:22:02.025Z,27.60
2017-05-31T13:24:30.317Z,26.40
2017-05-31T13:26:58.615Z,24.70
2017-05-31T13:29:26.946Z,25.20
2017-05-31T13:31:55.242Z,24.90
2017-05-31T13:34:23.537Z,24.70
2017-05-31T13:36:51.856Z,24.90
2017-05-31T13:39:20.159Z,25.20
2017-05-31T13:41:48.458Z,25.10
2017-05-31T13:44:16.783Z,24.70
2017-05-31T13:46:45.079Z,24.80
2017-05-31T13:49:13.376Z,24.80
2017-05-31T13:51:41.698Z,24.60
2017-05-31T13:54:09.988Z,25.70
2017-05-31T13:56:38.285Z,26.10
2017-05-31T13:59:06.610Z,25.40
2017-05-31T14:01:34.913Z,25.00
2017-05-31T14:04:03.206Z,25.40
2017-05-31T14:06:31.526Z,24.70
2017-05-31T14:08:59.822Z,25.20
2017-05-31T14:11:28.151Z,24.80
2017-05-31T14:13:56.462Z,24.80
2017-05-31T14:16:24.865Z,24.90
2017-05-31T14:18:53.181Z,24.50
2017-05-31T14:21:21.485Z,24.30
2017-05-31T14:23:49.813Z,25.00
2017-05-31T14:26:18.115Z,25.00
2017-05-31T14:28:46.413Z,25.20
2017-05-31T14:31:14.748Z,24.80
2017-05-31T14:33:43.047Z,25.70
2017-05-31T14:36:11.607Z,25.30
2017-05-31T14:38:39.920Z,25.60
2017-05-31T14:41:08.218Z,26.20
2017-05-31T14:43:36.528Z,26.00
2017-05-31T14:46:04.843Z,25.40
2017-05-31T14:48:33.171Z,24.80
2017-05-31T14:51:01.467Z,25.10
2017-05-31T14:53:29.830Z,25.80
2017-05-31T14:55:58.162Z,24.70
2017-05-31T14:58:26.466Z,25.30
2017-05-31T15:00:54.802Z,25.70
2017-05-31T15:03:23.131Z,26.00
2017-05-31T15:05:51.520Z,26.00
2017-05-31T15:08:19.816Z,26.30
2017-05-31T15:10:48.134Z,26.70
2017-05-31T15:13:16.450Z,27.00
2017-05-31T15:15:44.777Z,26.20
2017-05-31T15:18:13.085Z,26.30
2017-05-31T15:20:41.483Z,25.70
2017-05-31T15:23:09.801Z,25.70
2017-05-31T15:25:38.102Z,26.00
2017-05-31T15:28:06.416Z,25.80
2017-05-31T15:30:34.730Z,26.50
2017-05-31T15:33:03.053Z,26.60
2017-05-31T15:35:31.450Z,26.30
2017-05-31T15:37:59.751Z,25.80
2017-05-31T15:40:28.073Z,26.80
2017-05-31T15:42:56.371Z,26.20
2017-05-31T15:45:24.759Z,26.80
2017-05-31T15:47:53.067Z,27.30
2017-05-31T15:50:21.362Z,27.70
2017-05-31T15:52:49.681Z,28.40
2017-05-31T15:55:18.287Z,28.70
2017-05-31T15:57:46.586Z,28.20
2017-05-31T16:00:14.950Z,28.20
2017-05-31T16:02:43.247Z,27.80
2017-05-31T16:05:11.554Z,28.10
2017-05-31T16:07:39.890Z,28.50
2017-05-31T16:10:08.250Z,28.00
2017-05-31T16:12:36.560Z,28.30
2017-05-31T16:15:04.996Z,29.00
2017-05-31T16:17:33.393Z,30.70
2017-05-31T16:20:01.696Z,32.00
2017-05-31T16:22:30.130Z,31.70
2017-05-31T16:24:58.611Z,30.90
2017-05-31T16:27:28.021Z,30.70
2017-05-31T16:29:56.617Z,31.40
2017-05-31T16:32:24.938Z,32.60
2017-05-31T16:34:53.455Z,33.10
2017-05-31T16:37:30.361Z,34.60
2017-05-31T16:39:58.687Z,35.90
2017-05-31T16:42:27.710Z,36.30
2017-05-31T16:44:56.661Z,37.40
2017-05-31T16:47:24.985Z,38.80
2017-05-31T16:49:53.359Z,39.60
2017-05-31T16:52:21.733Z,41.40
2017-05-31T16:54:50.115Z,41.10
2017-05-31T16:57:18.411Z,41.70
2017-05-31T16:59:46.703Z,41.60
2017-05-31T17:02:15.139Z,41.20
2017-05-31T17:04:43.458Z,42.30
2017-05-31T17:07:11.826Z,42.70
2017-05-31T17:09:40.146Z,43.00
2017-05-31T17:12:08.474Z,43.10
2017-05-31T17:14:36.774Z,43.10
2017-05-31T17:17:05.106Z,43.90
2017-05-31T17:19:33.646Z,44.00
2017-05-31T17:22:01.979Z,44.10
2017-05-31T17:24:30.281Z,44.00
2017-05-31T17:26:58.594Z,44.10
2017-05-31T17:29:26.907Z,44.20
2017-05-31T17:31:55.285Z,44.90
2017-05-31T17:34:23.593Z,45.40
2017-05-31T17:36:52.245Z,45.60
2017-05-31T17:39:20.547Z,46.20
2017-05-31T17:41:48.951Z,46.80
2017-05-31T17:44:17.275Z,47.40
2017-05-31T17:46:45.572Z,48.10
2017-05-31T17:49:13.892Z,48.80
2017-05-31T17:51:42.195Z,49.20
2017-05-31T17:54:10.776Z,49.50
2017-05-31T17:56:39.094Z,49.30
2017-05-31T17:59:07.439Z,50.60
2017-05-31T18:01:35.736Z,50.90
2017-05-31T18:04:04.040Z,51.00
2017-05-31T18:06:32.367Z,51.30
2017-05-31T18:09:00.666Z,51.50
2017-05-31T18:11:28.978Z,51.50
2017-05-31T18:13:57.406Z,52.10
2017-05-31T18:16:25.782Z,52.20
2017-05-31T18:18:54.105Z,52.90
2017-05-31T18:21:22.424Z,52.60
2017-05-31T18:23:50.763Z,53.10
2017-05-31T18:26:19.098Z,52.70
2017-05-31T18:28:47.483Z,53.40
2017-05-31T18:31:16.047Z,53.70
2017-05-31T18:33:44.357Z,54.20
2017-05-31T18:36:12.665Z,54.20
2017-05-31T18:38:41.003Z,54.80
2017-05-31T18:41:09.409Z,55.10
2017-05-31T18:43:37.745Z,55.10
2017-05-31T18:46:06.079Z,55.70
2017-05-31T18:48:34.381Z,56.20
2017-05-31T18:51:05.611Z,56.20
2017-05-31T18:53:33.911Z,56.90
2017-05-31T18:56:02.287Z,57.30
2017-05-31T18:58:31.173Z,57.60
2017-05-31T19:00:59.857Z,58.50
2017-05-31T19:03:28.176Z,58.70
2017-05-31T19:05:56.518Z,59.20
2017-05-31T19:08:24.899Z,59.40
2017-05-31T19:10:53.294Z,60.20
2017-05-31T19:13:21.636Z,61.50
2017-05-31T19:15:49.961Z,62.20
2017-05-31T19:18:18.402Z,63.40
2017-05-31T19:20:46.718Z,64.00
2017-05-31T19:23:15.026Z,64.60
2017-05-31T19:25:43.377Z,65.60
2017-05-31T19:28:11.762Z,66.30
2017-05-31T19:30:40.133Z,67.10
2017-05-31T19:33:08.464Z,67.30
2017-05-31T19:35:36.774Z,68.00
2017-05-31T19:38:05.141Z,68.80
2017-05-31T19:40:33.465Z,69.60
2017-05-31T19:43:01.789Z,70.70
2017-05-31T19:45:30.167Z,71.50
2017-05-31T19:47:58.575Z,72.40
2017-05-31T19:50:26.899Z,73.20
2017-05-31T19:52:55.201Z,74.00
2017-05-31T19:55:23.571Z,75.20
2017-05-31T19:57:51.969Z,76.00
2017-05-31T20:00:20.354Z,77.10
2017-05-31T20:02:48.807Z,79.10
2017-05-31T20:05:17.557Z,79.70
2017-05-31T20:07:45.862Z,81.50
2017-05-31T20:10:14.222Z,83.40
2017-05-31T20:12:42.546Z,85.60
2017-05-31T20:15:10.912Z,86.90
2017-05-31T20:17:39.638Z,89.50
2017-05-31T20:20:07.950Z,90.80
2017-05-31T20:22:36.356Z,91.40
2017-05-31T20:25:04.677Z,92.00
2017-05-31T20:27:33.018Z,91.90
2017-05-31T20:30:01.389Z,92.10
2017-05-31T20:32:29.698Z,92.60
2017-05-31T20:34:58.043Z,92.50
2017-05-31T20:37:26.341Z,92.90
2017-05-31T20:39:54.641Z,93.00
2017-05-31T20:42:22.958Z,93.20
2017-05-31T20:44:51.316Z,93.80
2017-05-31T20:47:19.604Z,94.20
2017-05-31T20:49:47.937Z,94.40
2017-05-31T20:52:16.317Z,94.10
2017-05-31T20:54:44.646Z,94.50
2017-05-31T20:57:12.965Z,93.60
2017-05-31T20:59:41.262Z,94.00
2017-05-31T21:02:09.583Z,93.10
2017-05-31T21:04:37.886Z,93.80
2017-05-31T21:07:06.231Z,93.20
2017-05-31T21:09:34.622Z,94.10
2017-05-31T21:12:02.990Z,93.60
2017-05-31T21:14:31.378Z,95.20
2017-05-31T21:16:59.677Z,94.40
2017-05-31T21:19:28.009Z,94.50
2017-05-31T21:21:56.492Z,95.40
2017-05-31T21:24:24.972Z,95.00
2017-05-31T21:26:53.365Z,95.60
2017-05-31T21:29:21.741Z,96.00
2017-05-31T21:31:50.037Z,96.40
2017-05-31T21:34:18.490Z,96.70
2017-05-31T21:36:46.967Z,96.80
2017-05-31T21:39:15.337Z,97.70
2017-05-31T21:41:43.741Z,97.50
2017-05-31T21:44:12.113Z,97.30
2017-05-31T21:46:40.450Z,97.70
2017-05-31T21:49:08.767Z,97.60
2017-05-31T21:51:37.150Z,97.70
2017-05-31T21:54:05.483Z,97.40
2017-05-31T21:56:33.815Z,97.40
2017-05-31T21:59:02.183Z,97.50
2017-05-31T22:01:30.559Z,99.30
2017-05-31T22:03:58.854Z,99.90
2017-05-31T22:06:27.144Z,99.90
2017-05-31T22:08:55.491Z,99.90
2017-05-31T22:11:23.867Z,99.90
2017-05-31T22:13:52.234Z,99.90
2017-05-31T22:16:20.563Z,99.90
2017-05-31T22:18:48.897Z,99.90
2017-05-31T22:21:17.782Z,99.90
2017-05-31T22:23:46.111Z,99.90
2017-05-31T22:26:14.486Z,99.90
2017-05-31T22:28:42.782Z,99.90
2017-05-31T22:31:11.100Z,99.90
2017-05-31T22:33:39.402Z,99.90
2017-05-31T22:36:07.851Z,99.90
2017-05-31T22:38:36.145Z,99.90
2017-05-31T22:41:04.606Z,99.90
2017-05-31T22:43:32.994Z,99.90
2017-05-31T22:46:01.297Z,99.90
2017-05-31T22:48:29.675Z,99.90
2017-05-31T22:50:58.021Z,99.90
2017-05-31T22:53:26.719Z,99.90
2017-05-31T22:55:55.186Z,99.90
2017-05-31T22:58:23.487Z,99.90
2017-05-31T23:00:51.807Z,99.90
2017-05-31T23:03:20.116Z,99.90
2017-05-31T23:05:48.411Z,99.90
2017-05-31T23:08:16.774Z,99.90
2017-05-31T23:10:45.152Z,99.90
2017-05-31T23:13:13.445Z,99.90
2017-05-31T23:15:41.759Z,99.90
2017-05-31T23:18:10.058Z,99.90
2017-05-31T23:20:38.460Z,99.90
2017-05-31T23:23:06.755Z,99.90
2017-05-31T23:25:35.122Z,99.90
2017-05-31T23:28:03.510Z,99.90
2017-05-31T23:30:32.089Z,99.90
2017-05-31T23:33:00.464Z,99.90
2017-05-31T23:35:28.791Z,99.90
2017-05-31T23:37:57.121Z,99.90
2017-05-31T23:40:25.498Z,99.90
2017-05-31T23:42:53.881Z,99.90
2017-05-31T23:45:22.348Z,99.90
2017-05-31T23:47:50.733Z,99.90
2017-05-31T23:50:19.127Z,99.90
2017-05-31T23:52:47.465Z,99.90
2017-05-31T23:55:15.763Z,99.90
2017-05-31T23:57:44.061Z,99.90
